createdAt,value
2017-06-08T00:00:02.883Z,83.53
2017-06-08T00:10:02.274Z,83.33
2017-06-08T00:20:02.354Z,83.98
2017-06-08T00:30:02.839Z,83.53
2017-06-08T00:40:02.464Z,83.18
2017-06-08T00:50:02.508Z,82.1
2017-06-08T01:00:02.937Z,81.31
2017-06-08T01:10:02.746Z,81.05
2017-06-08T01:20:02.464Z,79.66
2017-06-08T01:30:02.962Z,79.12
2017-06-08T01:40:02.972Z,79.58
2017-06-08T01:50:02.547Z,78.2
2017-06-08T02:00:02.996Z,78.55
2017-06-08T02:10:02.487Z,78.44
2017-06-08T02:20:02.269Z,77.39
2017-06-08T02:30:02.758Z,76.2
2017-06-08T02:40:02.818Z,75.49
2017-06-08T02:50:02.410Z,73.9
2017-06-08T03:00:02.878Z,73.73
2017-06-08T03:10:02.341Z,73.88
2017-06-08T03:20:02.403Z,73.92
2017-06-08T03:30:02.847Z,74.07
2017-06-08T03:40:02.409Z,74.03
2017-06-08T03:50:02.614Z,74.25
2017-06-08T04:00:02.008Z,74.3
2017-06-08T04:10:02.474Z,74.12
2017-06-08T04:20:02.719Z,74.51
2017-06-08T04:30:02.278Z,74.35
2017-06-08T04:40:02.167Z,74.58
2017-06-08T04:50:02.227Z,74.68
2017-06-08T05:00:02.663Z,74.81
2017-06-08T05:10:02.226Z,74.21
2017-06-08T05:20:02.575Z,74.59
2017-06-08T05:30:02.064Z,74.33
2017-06-08T05:40:02.533Z,76.21
2017-06-08T05:50:02.954Z,77.15
2017-06-08T06:00:02.409Z,77.16
2017-06-08T06:10:02.473Z,80.29
2017-06-08T06:20:02.515Z,79.35
2017-06-08T06:30:02.962Z,81.99
2017-06-08T06:40:02.419Z,83.67
2017-06-08T06:50:03.015Z,86.88
2017-06-08T07:00:02.483Z,90.66
2017-06-08T07:10:02.703Z,92.96
2017-06-08T07:20:02.226Z,93.73
2017-06-08T07:30:02.732Z,95.36
2017-06-08T07:40:02.773Z,96.06
2017-06-08T07:50:02.631Z,96.6
2017-06-08T08:00:02.074Z,96.54
2017-06-08T08:10:02.421Z,96.4
2017-06-08T08:20:02.587Z,96.18
2017-06-08T08:30:02.052Z,95.81
2017-06-08T08:40:02.511Z,95.47
2017-06-08T08:50:02.665Z,95.24
2017-06-08T09:00:02.109Z,95.63
2017-06-08T09:10:02.255Z,93.99
2017-06-08T09:20:02.922Z,93.51
2017-06-08T09:30:02.396Z,93.25
2017-06-08T09:40:02.994Z,90.38
2017-06-08T09:50:02.247Z,91.84
2017-06-08T10:00:02.718Z,91.58
2017-06-08T10:10:02.272Z,90.26
2017-06-08T10:20:02.834Z,89.86
2017-06-08T10:30:02.280Z,88.56
2017-06-08T10:40:02.752Z,88.87
2017-06-08T10:50:02.272Z,87.94
2017-06-08T11:00:02.725Z,84.89
2017-06-08T11:10:02.533Z,83.85
2017-06-08T11:20:02.404Z,82.1
2017-06-08T11:30:02.844Z,77.54
2017-06-08T11:40:02.458Z,76.49
2017-06-08T11:50:02.367Z,76.23
2017-06-08T12:00:02.824Z,74.84
2017-06-08T12:10:02.624Z,75.23
2017-06-08T12:20:02.050Z,73.05
2017-06-08T12:30:02.517Z,71.24
2017-06-08T12:40:02.996Z,70.36
2017-06-08T12:50:02.676Z,70.58
2017-06-08T13:00:02.107Z,66.07
2017-06-08T13:10:02.966Z,63.44
2017-06-08T13:20:02.579Z,62.66
2017-06-08T13:30:02.014Z,61.71
2017-06-08T13:40:02.480Z,60.72
2017-06-08T13:50:02.171Z,63.68
2017-06-08T14:00:02.655Z,64.14
2017-06-08T14:10:02.207Z,63.31
2017-06-08T14:20:02.702Z,63.22
2017-06-08T14:30:02.158Z,65.78
2017-06-08T14:40:02.598Z,64.93
2017-06-08T14:50:02.236Z,65.56
2017-06-08T15:00:02.720Z,63.42
2017-06-08T15:10:02.838Z,63.81
2017-06-08T15:20:02.860Z,66.34
2017-06-08T15:30:02.324Z,63.73
2017-06-08T15:40:02.772Z,63.25
2017-06-08T15:50:02.707Z,62.21
2017-06-08T16:00:02.168Z,63.16
2017-06-08T16:10:02.611Z,64.18
2017-06-08T16:20:05.486Z,63.21
2017-06-08T16:30:02.906Z,64.09
2017-06-08T16:40:02.384Z,65.29
2017-06-08T16:50:02.341Z,62.25
2017-06-08T17:00:02.822Z,64.51
2017-06-08T17:10:02.969Z,63.11
2017-06-08T17:20:02.739Z,63.05
2017-06-08T17:30:02.152Z,63.93
2017-06-08T17:40:02.708Z,64.7
2017-06-08T17:50:02.032Z,65
2017-06-08T18:00:02.530Z,65.27
2017-06-08T18:10:02.207Z,66.21
2017-06-08T18:20:02.243Z,67.02
2017-06-08T18:30:02.674Z,67.67
2017-06-08T18:40:02.153Z,67.67
2017-06-08T18:50:02.304Z,68.53
2017-06-08T19:00:02.764Z,69.55
2017-06-08T19:10:02.197Z,69.67
2017-06-08T19:20:02.798Z,69.74
2017-06-08T19:30:02.253Z,69.72
2017-06-08T19:40:02.734Z,70.08
2017-06-08T19:50:02.737Z,70.55
2017-06-08T20:00:02.198Z,70.31
2017-06-08T20:10:02.693Z,70.98
2017-06-08T20:20:02.765Z,71.72
2017-06-08T20:30:02.193Z,72.34
2017-06-08T20:40:02.643Z,73.01
2017-06-08T20:50:02.348Z,74.07
2017-06-08T21:00:02.850Z,74.65
2017-06-08T21:10:02.475Z,75.26
2017-06-08T21:20:02.561Z,75.27
2017-06-08T21:30:03.025Z,76.04
2017-06-08T21:40:02.535Z,75.89
2017-06-08T21:50:02.495Z,75.36
2017-06-08T22:00:02.975Z,75.29
2017-06-08T22:10:02.775Z,75.23
2017-06-08T22:20:02.150Z,75.58
2017-06-08T22:30:02.582Z,75.39
2017-06-08T22:40:02.532Z,74.81
2017-06-08T22:50:02.181Z,74.84
2017-06-08T23:00:02.634Z,74.36
2017-06-08T23:10:02.348Z,73.98
2017-06-08T23:20:02.400Z,73.29
2017-06-08T23:30:02.866Z,73.35
2017-06-08T23:40:02.348Z,73.15
2017-06-08T23:50:02.607Z,73.24
